Time;durP1;ratioP1;P1;durP2;ratioP2;P2;SDS_P1;SDS_P2;PMS_P1;PMS_P2;Temp;Humidity;BMP_temperature;BMP_pressure;BME280_temperature;BME280_humidity;BME280_pressure;Samples;Min_cycle;Max_cycle;Signal;HPM_P1;HPM_P2
2022/03/28 00:01:13;;;;;;;3.60;2.87;;;;;;;;;;5067159;28;20212;-65
2022/03/28 00:03:43;;;;;;;4.40;2.63;;;;;;;;;;5052271;28;20194;-65
2022/03/28 00:06:14;;;;;;;3.13;2.60;;;;;;;;;;5067662;28;20272;-64
2022/03/28 00:08:44;;;;;;;3.60;2.77;;;;;;;;;;5049904;28;20209;-65
2022/03/28 00:11:17;;;;;;;4.03;2.70;;;;;;;;;;5049983;28;20196;-65
2022/03/28 00:13:47;;;;;;;3.60;3.00;;;;;;;;;;5049191;28;20217;-65
2022/03/28 00:16:18;;;;;;;6.73;2.90;;;;;;;;;;5070705;28;20189;-65
2022/03/28 00:18:50;;;;;;;4.33;3.30;;;;;;;;;;5070407;28;20205;-64
2022/03/28 00:21:22;;;;;;;3.63;2.70;;;;;;;;;;5052315;28;20862;-64
2022/03/28 00:23:51;;;;;;;4.13;2.67;;;;;;;;;;5045879;28;20198;-65
2022/03/28 00:26:21;;;;;;;4.17;2.90;;;;;;;;;;5068352;28;20216;-64
2022/03/28 00:28:52;;;;;;;5.47;2.60;;;;;;;;;;5070112;28;20206;-64
2022/03/28 00:31:20;;;;;;;3.93;2.90;;;;;;;;;;5067755;28;20190;-64
2022/03/28 00:33:50;;;;;;;3.80;3.23;;;;;;;;;;5072076;28;20251;-66
2022/03/28 00:36:27;;;;;;;4.70;3.57;;;;;;;;;;5071013;28;20193;-63
2022/03/28 00:38:58;;;;;;;3.60;2.77;;;;;;;;;;5072347;28;20193;-64
2022/03/28 00:41:28;;;;;;;3.30;3.00;;;;;;;;;;5069716;28;20227;-64
2022/03/28 00:43:57;;;;;;;4.63;3.50;;;;;;;;;;5042716;28;20233;-65
2022/03/28 00:46:25;;;;;;;4.40;3.27;;;;;;;;;;5050376;28;20198;-64
2022/03/28 00:48:56;;;;;;;4.90;3.23;;;;;;;;;;5046908;28;20190;-65
2022/03/28 00:51:26;;;;;;;4.87;3.50;;;;;;;;;;5068749;28;20233;-64
2022/03/28 00:53:55;;;;;;;4.20;3.50;;;;;;;;;;5069153;28;20198;-63
2022/03/28 00:56:28;;;;;;;4.63;3.50;;;;;;;;;;5067133;28;20902;-64
2022/03/28 00:58:58;;;;;;;4.73;3.50;;;;;;;;;;5064956;28;20213;-65
2022/03/28 01:01:31;;;;;;;4.83;3.73;;;;;;;;;;5067852;28;20193;-65
2022/03/28 01:04:08;;;;;;;6.20;4.07;;;;;;;;;;5069109;28;20190;-64
2022/03/28 01:06:36;;;;;;;5.90;3.80;;;;;;;;;;5069112;28;20210;-64
2022/03/28 01:09:07;;;;;;;5.83;4.20;;;;;;;;;;5036398;28;20210;-63
2022/03/28 01:11:37;;;;;;;5.07;3.60;;;;;;;;;;5068567;28;20611;-64
2022/03/28 01:14:06;;;;;;;4.60;3.50;;;;;;;;;;5065297;28;20217;-65
2022/03/28 01:19:26;;;;;;;5.10;3.90;;;;;;;;;;5014706;28;20226;-66
2022/03/28 01:21:57;;;;;;;7.17;3.90;;;;;;;;;;5069555;28;20213;-64
2022/03/28 01:24:30;;;;;;;8.33;3.67;;;;;;;;;;5057784;28;20594;-65
2022/03/28 01:27:01;;;;;;;6.37;4.23;;;;;;;;;;5066402;28;20204;-63
2022/03/28 01:29:33;;;;;;;5.93;3.93;;;;;;;;;;5069537;28;20208;-65
2022/03/28 01:32:04;;;;;;;5.17;4.20;;;;;;;;;;5066656;28;20209;-66
2022/03/28 01:34:34;;;;;;;4.90;3.63;;;;;;;;;;5062445;28;20285;-64
2022/03/28 01:37:10;;;;;;;6.13;4.17;;;;;;;;;;5063661;28;20198;-64
2022/03/28 01:39:37;;;;;;;5.13;4.27;;;;;;;;;;5061486;28;20225;-64
2022/03/28 01:42:05;;;;;;;5.43;4.40;;;;;;;;;;5068732;28;20194;-64
2022/03/28 01:44:32;;;;;;;5.63;4.03;;;;;;;;;;5065828;28;20206;-63
2022/03/28 01:46:59;;;;;;;6.30;4.40;;;;;;;;;;5065609;28;20186;-65
2022/03/28 01:49:26;;;;;;;5.20;4.27;;;;;;;;;;5068035;28;20205;-65
2022/03/28 01:51:55;;;;;;;5.00;4.27;;;;;;;;;;5065123;28;20240;-65
2022/03/28 01:54:25;;;;;;;6.47;4.13;;;;;;;;;;5070298;28;20202;-65
2022/03/28 01:56:54;;;;;;;5.77;4.40;;;;;;;;;;5064737;28;20201;-64
2022/03/28 01:59:24;;;;;;;6.80;4.50;;;;;;;;;;5067361;28;20264;-64
2022/03/28 02:01:53;;;;;;;5.50;3.90;;;;;;;;;;5041052;28;20198;-66
2022/03/28 02:04:22;;;;;;;7.13;4.40;;;;;;;;;;5037482;28;20203;-65
2022/03/28 02:06:52;;;;;;;7.80;4.43;;;;;;;;;;5055273;28;20202;-65
2022/03/28 02:09:22;;;;;;;5.53;4.10;;;;;;;;;;5053357;28;20212;-64
2022/03/28 02:11:54;;;;;;;5.40;4.30;;;;;;;;;;5067863;28;20198;-64
2022/03/28 02:14:26;;;;;;;6.40;4.30;;;;;;;;;;5075128;28;20221;-65
2022/03/28 02:17:00;;;;;;;5.50;4.33;;;;;;;;;;5065816;28;20687;-65
2022/03/28 02:19:30;;;;;;;5.53;4.33;;;;;;;;;;5063843;28;20221;-65
2022/03/28 02:22:02;;;;;;;5.77;3.97;;;;;;;;;;5042401;28;20204;-64
2022/03/28 02:24:34;;;;;;;6.50;4.00;;;;;;;;;;5071057;28;20225;-64
2022/03/28 02:27:07;;;;;;;5.33;3.83;;;;;;;;;;5064006;28;20205;-65
2022/03/28 02:29:39;;;;;;;5.77;3.90;;;;;;;;;;5067369;28;20283;-65
2022/03/28 02:32:12;;;;;;;4.93;4.23;;;;;;;;;;5064598;28;20241;-65
2022/03/28 02:34:39;;;;;;;4.47;4.03;;;;;;;;;;5066442;28;20228;-64
2022/03/28 02:37:07;;;;;;;5.70;4.10;;;;;;;;;;5047335;28;20264;-66
2022/03/28 02:39:34;;;;;;;5.80;4.33;;;;;;;;;;5061099;28;20201;-65
2022/03/28 02:42:01;;;;;;;8.67;4.67;;;;;;;;;;5075651;28;20213;-65
2022/03/28 02:44:28;;;;;;;5.37;3.77;;;;;;;;;;5059425;28;20260;-65
2022/03/28 02:46:55;;;;;;;5.47;3.87;;;;;;;;;;5066103;28;20241;-64
2022/03/28 02:49:22;;;;;;;5.13;4.00;;;;;;;;;;5068132;28;20607;-64
2022/03/28 02:51:49;;;;;;;6.20;4.07;;;;;;;;;;5050176;28;20229;-64
2022/03/28 02:54:17;;;;;;;4.57;3.70;;;;;;;;;;5074864;28;20209;-64
2022/03/28 02:56:45;;;;;;;6.83;4.23;;;;;;;;;;5065813;28;20209;-65
2022/03/28 02:59:18;;;;;;;5.70;3.67;;;;;;;;;;5069249;28;20185;-66
2022/03/28 03:01:51;;;;;;;6.73;3.97;;;;;;;;;;5067330;28;20205;-65
2022/03/28 03:04:23;;;;;;;5.13;3.60;;;;;;;;;;5060344;28;20190;-66
2022/03/28 03:06:53;;;;;;;6.03;3.90;;;;;;;;;;5056059;28;20194;-65
2022/03/28 03:09:22;;;;;;;6.07;3.57;;;;;;;;;;5063265;28;20654;-65
2022/03/28 03:11:55;;;;;;;5.10;3.70;;;;;;;;;;5067640;28;20328;-65
2022/03/28 03:14:28;;;;;;;5.37;3.50;;;;;;;;;;5055954;28;20206;-65
2022/03/28 03:16:58;;;;;;;5.13;3.90;;;;;;;;;;5048304;28;20194;-65
2022/03/28 03:19:30;;;;;;;5.13;4.20;;;;;;;;;;5048978;28;20210;-63
2022/03/28 03:21:58;;;;;;;4.93;3.30;;;;;;;;;;5069509;28;20204;-64
2022/03/28 03:24:31;;;;;;;4.97;3.57;;;;;;;;;;5074786;28;20274;-64
2022/03/28 03:27:00;;;;;;;4.37;3.90;;;;;;;;;;5064980;28;20212;-63
2022/03/28 03:29:33;;;;;;;3.90;3.10;;;;;;;;;;5069263;28;20193;-65
2022/03/28 03:32:06;;;;;;;6.60;3.63;;;;;;;;;;5043127;28;20237;-64
2022/03/28 03:34:43;;;;;;;5.40;3.80;;;;;;;;;;5068653;28;20244;-64
2022/03/28 03:37:12;;;;;;;4.57;3.27;;;;;;;;;;5066152;28;20181;-64
2022/03/28 03:39:43;;;;;;;5.23;3.83;;;;;;;;;;5067622;28;20180;-66
2022/03/28 03:42:15;;;;;;;4.43;3.23;;;;;;;;;;5068095;28;20248;-64
2022/03/28 03:44:48;;;;;;;5.00;3.07;;;;;;;;;;5064549;28;20209;-64
2022/03/28 03:47:17;;;;;;;5.40;3.33;;;;;;;;;;5058294;28;20205;-64
2022/03/28 03:49:48;;;;;;;4.93;3.37;;;;;;;;;;5063138;28;20209;-64
2022/03/28 03:52:18;;;;;;;5.63;3.33;;;;;;;;;;5067054;28;20244;-64
2022/03/28 03:54:48;;;;;;;3.53;2.90;;;;;;;;;;5025861;28;20203;-65
2022/03/28 03:57:19;;;;;;;5.37;3.30;;;;;;;;;;5058629;28;20208;-65
2022/03/28 03:59:49;;;;;;;6.37;3.60;;;;;;;;;;5068422;28;20197;-66
2022/03/28 04:02:19;;;;;;;4.20;3.33;;;;;;;;;;5061452;28;20190;-64
2022/03/28 04:04:46;;;;;;;3.77;2.90;;;;;;;;;;5067113;28;20209;-64
2022/03/28 04:07:14;;;;;;;4.47;3.10;;;;;;;;;;5044347;28;20186;-64
2022/03/28 04:09:42;;;;;;;4.67;3.10;;;;;;;;;;5068223;28;20232;-64
2022/03/28 04:12:14;;;;;;;5.10;3.13;;;;;;;;;;5066041;28;20208;-64
2022/03/28 04:14:48;;;;;;;4.40;3.20;;;;;;;;;;5066796;28;20217;-64
2022/03/28 04:17:17;;;;;;;4.37;3.30;;;;;;;;;;5064194;28;20608;-64
2022/03/28 04:19:48;;;;;;;5.03;3.00;;;;;;;;;;5070427;28;20233;-65
2022/03/28 04:22:22;;;;;;;3.70;2.70;;;;;;;;;;5071453;28;20235;-64
2022/03/28 04:24:52;;;;;;;3.83;3.03;;;;;;;;;;5059987;28;20209;-64
2022/03/28 04:27:19;;;;;;;4.33;3.23;;;;;;;;;;5070788;28;20205;-64
2022/03/28 04:29:46;;;;;;;4.37;3.10;;;;;;;;;;5072405;28;20181;-64
2022/03/28 04:32:14;;;;;;;5.93;2.97;;;;;;;;;;5067945;28;20222;-64
2022/03/28 04:34:44;;;;;;;4.20;3.60;;;;;;;;;;5070115;28;20288;-64
2022/03/28 04:37:11;;;;;;;3.87;3.00;;;;;;;;;;5067527;28;20205;-64
2022/03/28 04:39:38;;;;;;;5.80;4.03;;;;;;;;;;5074478;28;20193;-63
2022/03/28 04:42:06;;;;;;;4.07;3.10;;;;;;;;;;5073152;28;20210;-65
2022/03/28 04:44:33;;;;;;;3.97;2.80;;;;;;;;;;5070764;28;20205;-65
2022/03/28 04:47:05;;;;;;;4.70;3.00;;;;;;;;;;5071957;28;20646;-64
2022/03/28 04:49:32;;;;;;;5.53;3.27;;;;;;;;;;5076272;28;20192;-64
2022/03/28 04:51:59;;;;;;;4.10;2.80;;;;;;;;;;5076654;28;20230;-64
2022/03/28 04:54:27;;;;;;;5.13;2.90;;;;;;;;;;5074976;28;20659;-65
2022/03/28 04:56:54;;;;;;;3.90;3.17;;;;;;;;;;5066490;28;20217;-64
2022/03/28 04:59:21;;;;;;;3.90;3.10;;;;;;;;;;5059469;28;20174;-64
2022/03/28 05:01:48;;;;;;;4.47;2.90;;;;;;;;;;5073446;28;20205;-64
2022/03/28 05:04:15;;;;;;;4.67;2.93;;;;;;;;;;5069433;28;20228;-65
2022/03/28 05:06:42;;;;;;;4.93;3.33;;;;;;;;;;5046130;28;20186;-65
2022/03/28 05:09:09;;;;;;;4.97;2.80;;;;;;;;;;5066090;28;20324;-63
2022/03/28 05:11:39;;;;;;;4.30;2.80;;;;;;;;;;5089257;28;20693;-66
2022/03/28 05:14:09;;;;;;;5.80;3.37;;;;;;;;;;5036266;28;20230;-65
2022/03/28 05:16:39;;;;;;;5.33;3.10;;;;;;;;;;5077314;28;20194;-64
2022/03/28 05:19:09;;;;;;;3.37;2.67;;;;;;;;;;5036817;28;20221;-65
2022/03/28 05:21:40;;;;;;;5.13;3.03;;;;;;;;;;5079504;28;20194;-66
2022/03/28 05:24:12;;;;;;;4.70;3.37;;;;;;;;;;5045967;28;20648;-66
2022/03/28 05:26:42;;;;;;;4.13;3.13;;;;;;;;;;5064992;28;20849;-65
2022/03/28 05:29:15;;;;;;;5.97;3.30;;;;;;;;;;5045184;28;20270;-65
2022/03/28 05:31:43;;;;;;;4.47;2.90;;;;;;;;;;5065687;28;20785;-65
2022/03/28 05:34:15;;;;;;;7.10;3.80;;;;;;;;;;5045993;28;20216;-65
2022/03/28 05:36:48;;;;;;;4.63;3.23;;;;;;;;;;5075875;28;20201;-65
2022/03/28 05:39:20;;;;;;;4.23;3.33;;;;;;;;;;5049769;28;20639;-66
2022/03/28 05:41:53;;;;;;;6.50;3.47;;;;;;;;;;5048186;28;20299;-65
2022/03/28 05:44:23;;;;;;;5.27;3.40;;;;;;;;;;5060276;28;20291;-66
2022/03/28 05:46:52;;;;;;;6.20;3.70;;;;;;;;;;5049508;28;20200;-66
2022/03/28 05:49:24;;;;;;;5.27;3.60;;;;;;;;;;5067595;28;20218;-66
2022/03/28 05:51:57;;;;;;;6.63;3.30;;;;;;;;;;5062324;28;20234;-65
2022/03/28 05:54:30;;;;;;;9.33;4.10;;;;;;;;;;5026672;28;20210;-64
2022/03/28 05:57:00;;;;;;;6.00;3.80;;;;;;;;;;5024810;28;20223;-64
2022/03/28 05:59:29;;;;;;;7.30;4.03;;;;;;;;;;5047526;28;20597;-64
2022/03/28 06:01:56;;;;;;;6.90;4.40;;;;;;;;;;5029811;28;20190;-67
2022/03/28 06:04:24;;;;;;;8.63;4.33;;;;;;;;;;5047163;28;20542;-66
2022/03/28 06:06:52;;;;;;;8.60;4.40;;;;;;;;;;5045907;28;20194;-65
2022/03/28 06:09:21;;;;;;;7.23;4.00;;;;;;;;;;5024464;28;20217;-65
2022/03/28 06:11:50;;;;;;;8.23;4.97;;;;;;;;;;5030217;28;20210;-66
2022/03/28 06:14:19;;;;;;;7.90;4.23;;;;;;;;;;5045348;28;20232;-66
2022/03/28 06:16:58;;;;;;;7.43;4.60;;;;;;;;;;5045824;28;20217;-66
2022/03/28 06:19:29;;;;;;;7.37;4.30;;;;;;;;;;5040550;28;20276;-66
2022/03/28 06:22:03;;;;;;;9.03;4.80;;;;;;;;;;5044040;28;20518;-66
2022/03/28 06:24:33;;;;;;;7.97;4.40;;;;;;;;;;5043123;28;20191;-65
2022/03/28 06:27:05;;;;;;;10.43;5.23;;;;;;;;;;5041142;28;20202;-65
2022/03/28 06:29:33;;;;;;;6.60;4.10;;;;;;;;;;5042941;28;20198;-66
2022/03/28 06:32:03;;;;;;;11.20;4.60;;;;;;;;;;5043158;28;20218;-67
2022/03/28 06:34:35;;;;;;;8.13;4.70;;;;;;;;;;5035372;28;20225;-64
2022/03/28 06:37:07;;;;;;;8.47;4.40;;;;;;;;;;5045006;28;20202;-66
2022/03/28 06:39:36;;;;;;;7.60;4.33;;;;;;;;;;5035386;28;20190;-66
2022/03/28 06:42:07;;;;;;;8.60;4.73;;;;;;;;;;5046958;28;20206;-64
2022/03/28 06:44:37;;;;;;;8.00;4.37;;;;;;;;;;5036624;28;20218;-65
2022/03/28 06:47:07;;;;;;;7.13;4.00;;;;;;;;;;5041140;28;20209;-66
2022/03/28 06:49:36;;;;;;;28.00;8.25;;;;;;;;;;5044555;28;20487;-69
2022/03/28 06:52:04;;;;;;;27.80;8.07;;;;;;;;;;5050939;28;20236;-66
2022/03/28 06:54:31;;;;;;;40.73;9.13;;;;;;;;;;5073114;28;20197;-69
2022/03/28 06:56:58;;;;;;;29.70;7.70;;;;;;;;;;5072226;28;20205;-67
2022/03/28 06:59:29;;;;;;;28.53;7.80;;;;;;;;;;5071280;28;20610;-65
2022/03/28 07:02:00;;;;;;;33.23;7.73;;;;;;;;;;5058047;28;20197;-66
2022/03/28 07:04:29;;;;;;;22.90;6.77;;;;;;;;;;5042573;28;20205;-66
2022/03/28 07:06:56;;;;;;;24.27;7.27;;;;;;;;;;5074277;28;20209;-64
2022/03/28 07:09:23;;;;;;;23.10;7.23;;;;;;;;;;5068487;28;20652;-65
2022/03/28 07:11:51;;;;;;;18.90;6.50;;;;;;;;;;5074290;28;20664;-65
2022/03/28 07:14:19;;;;;;;15.13;5.80;;;;;;;;;;5066070;28;20666;-66
2022/03/28 07:16:46;;;;;;;18.83;5.83;;;;;;;;;;5072956;28;20193;-67
2022/03/28 07:19:15;;;;;;;14.43;5.83;;;;;;;;;;5069430;28;20201;-65
2022/03/28 07:21:42;;;;;;;22.03;5.77;;;;;;;;;;5069906;28;20190;-66
2022/03/28 07:24:10;;;;;;;12.87;5.47;;;;;;;;;;5068260;28;20193;-66
2022/03/28 07:26:37;;;;;;;15.27;5.77;;;;;;;;;;5076200;28;20533;-66
2022/03/28 07:29:04;;;;;;;14.70;6.13;;;;;;;;;;5061472;28;21358;-66
2022/03/28 07:31:32;;;;;;;19.83;6.10;;;;;;;;;;5066177;28;20324;-64
2022/03/28 07:36:51;;;;;;;18.27;5.80;;;;;;;;;;5073939;28;20235;-66
2022/03/28 07:39:20;;;;;;;16.07;5.43;;;;;;;;;;5066174;28;20199;-67
2022/03/28 07:41:47;;;;;;;14.57;5.87;;;;;;;;;;5051290;28;20814;-67
2022/03/28 07:44:15;;;;;;;14.87;5.53;;;;;;;;;;5064671;28;20254;-67
2022/03/28 07:46:44;;;;;;;14.57;5.33;;;;;;;;;;5070263;28;20251;-64
2022/03/28 07:49:12;;;;;;;11.43;5.27;;;;;;;;;;5072909;28;20185;-63
2022/03/28 07:51:39;;;;;;;13.57;5.07;;;;;;;;;;5075070;28;20201;-65
2022/03/28 07:54:06;;;;;;;11.13;4.93;;;;;;;;;;5064915;28;20206;-64
2022/03/28 07:56:34;;;;;;;15.80;5.23;;;;;;;;;;5039773;28;20262;-66
2022/03/28 07:59:07;;;;;;;10.80;4.57;;;;;;;;;;5071159;28;20707;-64
2022/03/28 08:01:34;;;;;;;8.80;4.17;;;;;;;;;;5074328;28;20197;-66
2022/03/28 08:04:03;;;;;;;7.63;4.20;;;;;;;;;;5067165;28;20561;-66
2022/03/28 08:06:30;;;;;;;12.40;4.23;;;;;;;;;;5070977;28;20251;-65
2022/03/28 08:08:59;;;;;;;10.43;4.00;;;;;;;;;;5067005;28;20219;-66
2022/03/28 08:11:26;;;;;;;9.50;4.00;;;;;;;;;;5057712;28;20208;-68
2022/03/28 08:13:55;;;;;;;11.63;4.57;;;;;;;;;;5074981;28;20197;-65
2022/03/28 08:16:28;;;;;;;8.03;3.80;;;;;;;;;;5072966;28;20227;-65
2022/03/28 08:18:55;;;;;;;7.03;3.93;;;;;;;;;;5056508;28;20561;-65
2022/03/28 08:21:22;;;;;;;8.80;3.57;;;;;;;;;;5070813;28;20213;-67
2022/03/28 08:23:49;;;;;;;10.13;4.37;;;;;;;;;;5071796;28;20205;-69
2022/03/28 08:26:17;;;;;;;7.70;3.60;;;;;;;;;;5077004;28;20190;-67
2022/03/28 08:28:44;;;;;;;6.27;3.73;;;;;;;;;;5073390;28;20194;-67
2022/03/28 08:31:11;;;;;;;6.67;3.50;;;;;;;;;;5070731;28;20205;-65
2022/03/28 08:33:38;;;;;;;6.67;3.93;;;;;;;;;;5057708;28;20205;-65
2022/03/28 08:36:06;;;;;;;7.10;3.50;;;;;;;;;;5077316;28;20278;-68
2022/03/28 08:38:35;;;;;;;9.50;3.97;;;;;;;;;;5076711;28;20193;-65
2022/03/28 08:41:02;;;;;;;6.97;3.23;;;;;;;;;;5077524;28;20200;-66
2022/03/28 08:43:30;;;;;;;10.00;4.67;;;;;;;;;;5074858;28;20694;-68
2022/03/28 08:45:58;;;;;;;7.40;4.63;;;;;;;;;;5058637;28;20200;-70
2022/03/28 08:48:27;;;;;;;8.23;5.17;;;;;;;;;;5075377;28;20189;-69
2022/03/28 08:50:55;;;;;;;7.43;4.37;;;;;;;;;;5071156;28;20232;-68
2022/03/28 08:53:22;;;;;;;7.30;4.50;;;;;;;;;;5074117;28;20690;-68
2022/03/28 08:55:49;;;;;;;7.27;4.50;;;;;;;;;;5048743;28;20702;-65
2022/03/28 08:58:16;;;;;;;7.97;4.33;;;;;;;;;;5075928;28;20201;-65
2022/03/28 09:00:43;;;;;;;9.53;4.60;;;;;;;;;;5071317;28;20213;-64
2022/03/28 09:03:11;;;;;;;7.93;4.60;;;;;;;;;;5069179;28;20317;-64
2022/03/28 09:05:39;;;;;;;7.33;4.60;;;;;;;;;;5070166;28;20264;-66
2022/03/28 09:08:07;;;;;;;14.50;5.73;;;;;;;;;;5068877;28;20201;-67
2022/03/28 09:10:38;;;;;;;8.27;4.00;;;;;;;;;;5073668;28;20519;-69
2022/03/28 09:13:13;;;;;;;8.43;4.43;;;;;;;;;;5077284;28;20703;-67
2022/03/28 09:15:51;;;;;;;8.43;4.03;;;;;;;;;;5076901;28;20243;-68
2022/03/28 09:18:19;;;;;;;9.20;4.00;;;;;;;;;;5071408;28;21593;-67
2022/03/28 09:21:09;;;;;;;9.87;4.40;;;;;;;;;;5073324;28;20830;-67
2022/03/28 09:23:46;;;;;;;9.33;4.97;;;;;;;;;;5057197;28;20205;-66
2022/03/28 09:26:20;;;;;;;7.23;4.83;;;;;;;;;;5073877;28;20196;-68
2022/03/28 09:28:53;;;;;;;6.93;4.63;;;;;;;;;;5071908;28;20220;-70
2022/03/28 09:31:25;;;;;;;8.80;4.50;;;;;;;;;;5044158;28;20739;-69
2022/03/28 09:33:53;;;;;;;10.17;5.83;;;;;;;;;;5053328;28;20209;-68
2022/03/28 09:36:39;;;;;;;9.83;5.57;;;;;;;;;;5067699;28;20213;-70
2022/03/28 09:39:07;;;;;;;8.30;5.57;;;;;;;;;;5065613;28;20200;-70
2022/03/28 09:41:34;;;;;;;9.93;5.47;;;;;;;;;;5074751;28;20255;-69
2022/03/28 09:44:01;;;;;;;6.77;5.20;;;;;;;;;;5066449;28;20225;-68
2022/03/28 09:46:29;;;;;;;7.97;5.57;;;;;;;;;;5058435;28;20201;-70
2022/03/28 09:49:00;;;;;;;9.50;5.60;;;;;;;;;;5066340;28;20212;-69
2022/03/28 09:51:28;;;;;;;7.57;5.37;;;;;;;;;;5071386;28;20216;-69
2022/03/28 09:53:55;;;;;;;7.97;5.13;;;;;;;;;;5054112;28;20209;-69
2022/03/28 09:56:22;;;;;;;6.33;5.13;;;;;;;;;;5070913;28;20241;-70
2022/03/28 09:58:59;;;;;;;11.73;5.60;;;;;;;;;;5057868;28;20631;-67
2022/03/28 10:01:30;;;;;;;8.47;5.90;;;;;;;;;;5057882;28;20212;-71
2022/03/28 10:04:03;;;;;;;10.73;6.40;;;;;;;;;;5072822;28;20248;-69
2022/03/28 10:06:35;;;;;;;9.53;6.33;;;;;;;;;;5071669;28;20275;-69
2022/03/28 10:09:06;;;;;;;9.93;6.30;;;;;;;;;;5063414;28;20213;-68
2022/03/28 10:11:33;;;;;;;9.30;5.93;;;;;;;;;;5075227;28;20745;-69
2022/03/28 10:14:01;;;;;;;9.97;5.90;;;;;;;;;;5077384;28;20210;-68
2022/03/28 10:16:31;;;;;;;7.70;5.67;;;;;;;;;;5080132;28;20316;-69
2022/03/28 10:19:05;;;;;;;8.20;6.07;;;;;;;;;;5074010;28;20493;-69
2022/03/28 10:21:40;;;;;;;8.50;5.63;;;;;;;;;;5078623;28;20234;-69
2022/03/28 10:24:13;;;;;;;8.87;5.93;;;;;;;;;;5074504;28;20202;-69
2022/03/28 10:26:44;;;;;;;7.63;5.70;;;;;;;;;;5080486;28;20216;-69
2022/03/28 10:29:14;;;;;;;7.63;5.53;;;;;;;;;;5075802;28;20205;-69
2022/03/28 10:32:00;;;;;;;8.63;6.40;;;;;;;;;;5041830;28;20209;-69
2022/03/28 10:34:55;;;;;;;8.90;6.60;;;;;;;;;;5076783;28;20204;-69
2022/03/28 10:37:35;;;;;;;8.03;5.80;;;;;;;;;;5077155;28;20189;-69
2022/03/28 10:40:19;;;;;;;9.90;6.67;;;;;;;;;;5070330;28;20189;-69
2022/03/28 10:42:47;;;;;;;6.90;5.23;;;;;;;;;;5076685;28;20244;-69
2022/03/28 10:45:18;;;;;;;9.27;6.10;;;;;;;;;;5068740;28;20210;-71
2022/03/28 10:47:49;;;;;;;9.17;5.90;;;;;;;;;;5066768;28;20230;-68
2022/03/28 10:50:39;;;;;;;8.23;5.70;;;;;;;;;;5075903;28;20197;-69
2022/03/28 10:53:17;;;;;;;6.13;5.10;;;;;;;;;;5052677;28;20289;-67
2022/03/28 10:55:50;;;;;;;7.20;5.47;;;;;;;;;;5067010;28;20310;-67
2022/03/28 10:58:19;;;;;;;9.73;5.90;;;;;;;;;;5075887;28;20189;-65
2022/03/28 11:01:06;;;;;;;6.83;4.87;;;;;;;;;;5062211;28;20251;-67
2022/03/28 11:03:39;;;;;;;8.27;5.27;;;;;;;;;;5069037;28;20666;-68
2022/03/28 11:06:11;;;;;;;8.40;5.10;;;;;;;;;;5053887;28;20216;-67
2022/03/28 11:08:45;;;;;;;8.83;5.57;;;;;;;;;;5071565;28;20234;-70
2022/03/28 11:11:17;;;;;;;8.40;5.47;;;;;;;;;;5067149;28;20291;-70
2022/03/28 11:13:48;;;;;;;6.87;5.10;;;;;;;;;;5065076;28;20201;-69
2022/03/28 11:16:19;;;;;;;8.43;5.57;;;;;;;;;;5071470;28;20207;-71
2022/03/28 11:19:05;;;;;;;8.77;6.20;;;;;;;;;;5052390;28;20684;-69
2022/03/28 11:21:59;;;;;;;8.07;5.27;;;;;;;;;;5071455;28;20182;-69
2022/03/28 11:24:41;;;;;;;9.30;6.53;;;;;;;;;;5028541;28;20193;-67
2022/03/28 11:27:15;;;;;;;8.33;5.20;;;;;;;;;;5045991;28;20201;-67
2022/03/28 11:29:44;;;;;;;7.63;5.57;;;;;;;;;;5059965;28;20217;-68
2022/03/28 11:32:23;;;;;;;6.43;4.90;;;;;;;;;;5069906;28;20217;-66
2022/03/28 11:34:55;;;;;;;7.77;5.17;;;;;;;;;;5069706;28;20201;-66
2022/03/28 11:37:23;;;;;;;8.23;5.47;;;;;;;;;;5065802;28;20225;-68
2022/03/28 11:39:53;;;;;;;7.70;5.80;;;;;;;;;;5068408;28;20817;-65
2022/03/28 11:42:22;;;;;;;9.13;5.60;;;;;;;;;;5069259;28;20193;-70
2022/03/28 11:44:49;;;;;;;9.03;5.90;;;;;;;;;;5065605;28;20217;-69
2022/03/28 11:47:18;;;;;;;7.60;5.80;;;;;;;;;;5074199;28;20209;-71
2022/03/28 11:49:59;;;;;;;8.17;6.43;;;;;;;;;;5073524;28;20275;-71
2022/03/28 11:52:28;;;;;;;9.53;6.00;;;;;;;;;;5054044;28;20592;-68
2022/03/28 11:54:57;;;;;;;8.07;6.03;;;;;;;;;;5073126;28;20192;-66
2022/03/28 12:00:19;;;;;;;7.47;5.43;;;;;;;;;;5075716;28;20246;-67
2022/03/28 12:02:56;;;;;;;8.90;5.87;;;;;;;;;;5069811;28;20504;-69
2022/03/28 12:05:27;;;;;;;7.33;5.57;;;;;;;;;;5074083;28;20202;-69
2022/03/28 12:07:54;;;;;;;6.90;5.30;;;;;;;;;;5069591;28;20205;-68
2022/03/28 12:10:29;;;;;;;6.70;5.63;;;;;;;;;;5066110;28;20182;-68
2022/03/28 12:12:58;;;;;;;6.27;5.17;;;;;;;;;;5066070;28;20906;-69
2022/03/28 12:15:29;;;;;;;6.40;5.53;;;;;;;;;;5071837;28;20243;-69
2022/03/28 12:18:01;;;;;;;7.37;5.27;;;;;;;;;;5069742;28;20255;-67
2022/03/28 12:20:32;;;;;;;7.20;5.13;;;;;;;;;;5062968;28;20686;-65
2022/03/28 12:23:01;;;;;;;6.73;5.27;;;;;;;;;;5063287;28;20639;-69
2022/03/28 12:25:39;;;;;;;8.40;5.20;;;;;;;;;;5068983;28;20202;-69
2022/03/28 12:28:08;;;;;;;7.30;5.40;;;;;;;;;;5073713;28;20270;-67
2022/03/28 12:30:37;;;;;;;5.90;5.30;;;;;;;;;;5068740;28;20227;-67
2022/03/28 12:33:12;;;;;;;7.73;6.50;;;;;;;;;;5069336;28;20838;-66
2022/03/28 12:35:43;;;;;;;7.67;5.27;;;;;;;;;;5075647;28;20201;-68
2022/03/28 12:38:13;;;;;;;6.17;5.23;;;;;;;;;;5070698;28;20194;-67
2022/03/28 12:40:43;;;;;;;7.03;5.57;;;;;;;;;;5074567;28;20219;-71
2022/03/28 12:43:11;;;;;;;7.93;5.27;;;;;;;;;;5075343;28;20673;-72
2022/03/28 12:45:39;;;;;;;7.23;5.50;;;;;;;;;;5076301;28;20197;-73
2022/03/28 12:48:08;;;;;;;6.80;5.30;;;;;;;;;;5078840;28;20204;-69
2022/03/28 12:51:02;;;;;;;6.47;5.33;;;;;;;;;;5074941;28;20193;-69
2022/03/28 12:53:31;;;;;;;6.63;5.40;;;;;;;;;;5078950;28;20313;-68
2022/03/28 12:56:20;;;;;;;5.47;4.90;;;;;;;;;;5070185;28;20242;-69
2022/03/28 12:59:04;;;;;;;5.97;5.10;;;;;;;;;;5075157;28;20258;-66
2022/03/28 13:01:36;;;;;;;7.43;4.90;;;;;;;;;;5058990;28;20209;-66
2022/03/28 13:04:20;;;;;;;8.93;5.30;;;;;;;;;;5059168;28;20602;-67
2022/03/28 13:06:49;;;;;;;7.17;5.17;;;;;;;;;;5076033;28;21008;-67
2022/03/28 13:09:24;;;;;;;6.13;5.53;;;;;;;;;;5068068;28;20734;-67
2022/03/28 13:11:51;;;;;;;14.97;6.47;;;;;;;;;;5073277;28;20201;-70
2022/03/28 13:14:29;;;;;;;8.37;6.13;;;;;;;;;;5068114;28;20217;-71
2022/03/28 13:17:12;;;;;;;10.77;6.83;;;;;;;;;;5057322;28;20220;-71
2022/03/28 13:19:40;;;;;;;7.70;5.73;;;;;;;;;;5075016;28;20212;-69
2022/03/28 13:22:10;;;;;;;7.67;5.73;;;;;;;;;;5077787;28;20220;-66
2022/03/28 13:24:40;;;;;;;6.80;5.83;;;;;;;;;;5056223;28;20202;-68
2022/03/28 13:29:54;;;;;;;10.53;6.77;;;;;;;;;;5076645;28;20773;-67
2022/03/28 13:32:21;;;;;;;7.33;6.00;;;;;;;;;;5074064;28;20220;-66
2022/03/28 13:34:49;;;;;;;7.40;5.80;;;;;;;;;;5072951;28;20202;-65
2022/03/28 13:37:23;;;;;;;10.10;5.80;;;;;;;;;;5069885;28;20226;-68
2022/03/28 13:39:50;;;;;;;7.87;5.60;;;;;;;;;;5073203;28;20622;-70
2022/03/28 13:42:17;;;;;;;10.57;5.93;;;;;;;;;;5075694;28;20209;-68
2022/03/28 13:44:44;;;;;;;7.23;5.73;;;;;;;;;;5072697;28;20646;-68
2022/03/28 13:47:12;;;;;;;19.53;6.77;;;;;;;;;;5071229;28;20190;-68
2022/03/28 13:49:39;;;;;;;7.67;5.27;;;;;;;;;;5052597;28;20216;-66
2022/03/28 13:52:07;;;;;;;6.60;5.00;;;;;;;;;;5063485;28;20226;-69
2022/03/28 13:54:34;;;;;;;7.87;5.73;;;;;;;;;;5071577;28;20201;-64
2022/03/28 13:57:01;;;;;;;6.13;5.27;;;;;;;;;;5066743;28;20229;-64
2022/03/28 13:59:28;;;;;;;6.03;5.40;;;;;;;;;;5072311;28;20542;-64
2022/03/28 14:01:55;;;;;;;7.83;5.07;;;;;;;;;;5077211;28;20754;-65
2022/03/28 14:04:23;;;;;;;6.37;5.00;;;;;;;;;;5064400;28;20569;-65
2022/03/28 14:06:50;;;;;;;7.00;5.53;;;;;;;;;;5075676;28;20242;-68
2022/03/28 14:09:19;;;;;;;6.50;5.27;;;;;;;;;;5067115;28;20217;-66
2022/03/28 14:11:47;;;;;;;7.87;5.53;;;;;;;;;;5072639;28;20218;-66
2022/03/28 14:14:14;;;;;;;9.07;6.23;;;;;;;;;;5075401;28;20263;-68
2022/03/28 14:16:41;;;;;;;5.80;4.93;;;;;;;;;;5066935;28;20221;-69
2022/03/28 14:19:09;;;;;;;7.80;6.07;;;;;;;;;;5068571;28;20204;-69
2022/03/28 14:21:37;;;;;;;9.73;6.30;;;;;;;;;;5075844;28;20601;-69
2022/03/28 14:24:10;;;;;;;8.07;6.03;;;;;;;;;;5074379;28;20275;-68
2022/03/28 14:26:42;;;;;;;7.73;5.10;;;;;;;;;;5067761;28;20197;-70
2022/03/28 14:29:12;;;;;;;8.13;5.43;;;;;;;;;;5077181;28;20201;-69
2022/03/28 14:31:39;;;;;;;7.00;5.40;;;;;;;;;;5066527;28;20217;-70
2022/03/28 14:34:10;;;;;;;7.50;4.97;;;;;;;;;;5070073;28;20280;-66
2022/03/28 14:36:41;;;;;;;7.97;4.80;;;;;;;;;;5038648;28;20226;-67
2022/03/28 14:39:11;;;;;;;6.17;4.70;;;;;;;;;;5071869;28;20194;-68
2022/03/28 14:41:41;;;;;;;6.57;5.20;;;;;;;;;;5071139;28;20746;-67
2022/03/28 14:44:12;;;;;;;7.43;5.30;;;;;;;;;;5048995;28;20206;-68
2022/03/28 14:49:29;;;;;;;6.73;4.70;;;;;;;;;;5077267;28;20191;-67
2022/03/28 14:52:03;;;;;;;5.63;4.90;;;;;;;;;;5077467;28;20220;-67
2022/03/28 14:54:38;;;;;;;5.83;5.23;;;;;;;;;;5067826;28;20202;-67
2022/03/28 14:57:11;;;;;;;6.57;5.83;;;;;;;;;;5050964;28;21286;-67
2022/03/28 14:59:42;;;;;;;6.63;5.47;;;;;;;;;;5075506;28;20204;-66
2022/03/28 15:02:18;;;;;;;7.57;6.10;;;;;;;;;;5073811;28;20225;-68
2022/03/28 15:05:04;;;;;;;7.80;5.33;;;;;;;;;;5057589;28;20341;-65
2022/03/28 15:07:35;;;;;;;6.87;5.47;;;;;;;;;;5070156;28;21149;-70
2022/03/28 15:10:07;;;;;;;5.23;4.67;;;;;;;;;;5073976;28;20194;-70
2022/03/28 15:12:40;;;;;;;5.77;4.57;;;;;;;;;;5069382;28;20578;-68
2022/03/28 15:15:09;;;;;;;6.43;5.00;;;;;;;;;;5068080;28;20722;-69